Terminal Aerodrome Forecast
Issued by NWS Buffalo, NY

Home | Current Version | Previous Version | Text Only | Print | Product List | Glossary On
Versions: 1 2 3 4 5 6 7 8 9 10 11 12 13 14 15 16 17 18 19 20 21 22 23 24 25 26 27 28 29 30 31 32 33
241
FTUS41 KBUF 272115 AAA
TAFBUF
TAF AMD
KBUF 272115Z 2721/2818 33003KT P6SM SCT035 OVC045
     FM280100 00000KT P6SM SCT030
     FM280500 VRB03KT P6SM FEW250
     FM280800 VRB03KT 5SM BR FEW250
     FM281200 11004KT P6SM FEW250=

USA.gov is the U.S. government's official web portal to all federal, state and local government web resources and services.